sensor_id;sensor_type;location;lat;lon;timestamp;P1;durP1;ratioP1;P2;durP2;ratioP2
76477;SDS011;65309;49.790;18.972;2023-03-02T00:02:09;7.15;;;4.20;;
76477;SDS011;65309;49.790;18.972;2023-03-02T00:07:18;14.00;;;5.10;;
76477;SDS011;65309;49.790;18.972;2023-03-02T00:12:23;6.95;;;4.35;;
76477;SDS011;65309;49.790;18.972;2023-03-02T00:17:27;19.88;;;4.00;;
76477;SDS011;65309;49.790;18.972;2023-03-02T00:22:30;8.30;;;4.60;;
76477;SDS011;65309;49.790;18.972;2023-03-02T00:27:32;9.07;;;5.05;;
76477;SDS011;65309;49.790;18.972;2023-03-02T00:32:35;9.05;;;3.92;;
76477;SDS011;65309;49.790;18.972;2023-03-02T00:37:38;13.55;;;5.38;;
76477;SDS011;65309;49.790;18.972;2023-03-02T00:42:40;9.02;;;4.68;;
76477;SDS011;65309;49.790;18.972;2023-03-02T00:47:42;11.23;;;5.57;;
76477;SDS011;65309;49.790;18.972;2023-03-02T00:52:45;8.05;;;3.50;;
76477;SDS011;65309;49.790;18.972;2023-03-02T00:57:51;7.15;;;4.68;;
76477;SDS011;65309;49.790;18.972;2023-03-02T01:02:55;11.40;;;4.35;;
76477;SDS011;65309;49.790;18.972;2023-03-02T01:07:59;3.38;;;2.30;;
76477;SDS011;65309;49.790;18.972;2023-03-02T01:13:01;7.68;;;4.50;;
76477;SDS011;65309;49.790;18.972;2023-03-02T01:18:03;12.18;;;3.70;;
76477;SDS011;65309;49.790;18.972;2023-03-02T01:23:07;6.15;;;3.40;;
76477;SDS011;65309;49.790;18.972;2023-03-02T01:28:09;11.18;;;4.00;;
76477;SDS011;65309;49.790;18.972;2023-03-02T01:33:11;5.00;;;2.38;;
76477;SDS011;65309;49.790;18.972;2023-03-02T01:38:14;5.63;;;3.05;;
76477;SDS011;65309;49.790;18.972;2023-03-02T01:43:16;2.33;;;1.98;;
76477;SDS011;65309;49.790;18.972;2023-03-02T01:48:19;8.50;;;3.90;;
76477;SDS011;65309;49.790;18.972;2023-03-02T01:53:28;4.85;;;3.08;;
76477;SDS011;65309;49.790;18.972;2023-03-02T01:58:33;8.82;;;5.00;;
76477;SDS011;65309;49.790;18.972;2023-03-02T02:03:37;10.60;;;6.00;;
76477;SDS011;65309;49.790;18.972;2023-03-02T02:08:41;15.55;;;3.78;;
76477;SDS011;65309;49.790;18.972;2023-03-02T02:13:43;7.93;;;3.72;;
76477;SDS011;65309;49.790;18.972;2023-03-02T02:18:45;5.30;;;1.92;;
76477;SDS011;65309;49.790;18.972;2023-03-02T02:23:52;3.50;;;1.60;;
76477;SDS011;65309;49.790;18.972;2023-03-02T02:29:07;14.88;;;4.80;;
76477;SDS011;65309;49.790;18.972;2023-03-02T02:34:15;7.75;;;4.82;;
76477;SDS011;65309;49.790;18.972;2023-03-02T02:39:23;5.38;;;4.07;;
76477;SDS011;65309;49.790;18.972;2023-03-02T02:44:31;11.07;;;4.72;;
76477;SDS011;65309;49.790;18.972;2023-03-02T02:49:34;6.78;;;3.58;;
76477;SDS011;65309;49.790;18.972;2023-03-02T02:54:38;2.80;;;2.33;;
76477;SDS011;65309;49.790;18.972;2023-03-02T02:59:44;4.07;;;2.10;;
76477;SDS011;65309;49.790;18.972;2023-03-02T03:04:48;5.35;;;3.00;;
76477;SDS011;65309;49.790;18.972;2023-03-02T03:09:51;5.20;;;2.50;;
76477;SDS011;65309;49.790;18.972;2023-03-02T03:15:00;3.00;;;2.60;;
76477;SDS011;65309;49.790;18.972;2023-03-02T03:25:11;2.15;;;2.00;;
76477;SDS011;65309;49.790;18.972;2023-03-02T03:30:17;2.17;;;1.73;;
76477;SDS011;65309;49.790;18.972;2023-03-02T03:35:19;3.70;;;2.17;;
76477;SDS011;65309;49.790;18.972;2023-03-02T03:40:21;6.20;;;1.42;;
76477;SDS011;65309;49.790;18.972;2023-03-02T03:45:25;2.00;;;1.30;;
76477;SDS011;65309;49.790;18.972;2023-03-02T03:50:28;3.95;;;1.52;;
76477;SDS011;65309;49.790;18.972;2023-03-02T03:55:30;1.42;;;1.33;;
76477;SDS011;65309;49.790;18.972;2023-03-02T04:00:34;1.02;;;0.82;;
76477;SDS011;65309;49.790;18.972;2023-03-02T04:05:36;3.83;;;2.53;;
76477;SDS011;65309;49.790;18.972;2023-03-02T04:10:39;1.27;;;1.23;;
76477;SDS011;65309;49.790;18.972;2023-03-02T04:15:42;1.27;;;1.13;;
76477;SDS011;65309;49.790;18.972;2023-03-02T04:20:47;1.63;;;1.52;;
76477;SDS011;65309;49.790;18.972;2023-03-02T04:25:49;1.95;;;1.48;;
76477;SDS011;65309;49.790;18.972;2023-03-02T04:30:53;1.60;;;1.45;;
76477;SDS011;65309;49.790;18.972;2023-03-02T04:35:55;1.65;;;1.55;;
76477;SDS011;65309;49.790;18.972;2023-03-02T04:40:57;0.80;;;0.80;;
76477;SDS011;65309;49.790;18.972;2023-03-02T04:46:01;1.45;;;1.35;;
76477;SDS011;65309;49.790;18.972;2023-03-02T04:51:03;14.25;;;9.13;;
76477;SDS011;65309;49.790;18.972;2023-03-02T04:56:05;3.47;;;3.08;;
76477;SDS011;65309;49.790;18.972;2023-03-02T05:01:09;2.83;;;2.50;;
76477;SDS011;65309;49.790;18.972;2023-03-02T05:06:12;15.75;;;4.18;;
76477;SDS011;65309;49.790;18.972;2023-03-02T05:11:14;2.97;;;2.65;;
76477;SDS011;65309;49.790;18.972;2023-03-02T05:16:24;3.30;;;1.95;;
76477;SDS011;65309;49.790;18.972;2023-03-02T05:21:30;0.90;;;0.77;;
76477;SDS011;65309;49.790;18.972;2023-03-02T05:26:32;2.05;;;1.80;;
76477;SDS011;65309;49.790;18.972;2023-03-02T05:31:36;4.43;;;2.78;;
76477;SDS011;65309;49.790;18.972;2023-03-02T05:36:40;3.25;;;2.95;;
76477;SDS011;65309;49.790;18.972;2023-03-02T05:41:42;4.90;;;3.03;;
76477;SDS011;65309;49.790;18.972;2023-03-02T05:46:46;4.38;;;3.70;;
76477;SDS011;65309;49.790;18.972;2023-03-02T05:51:50;8.10;;;2.90;;
76477;SDS011;65309;49.790;18.972;2023-03-02T05:56:52;4.32;;;2.55;;
76477;SDS011;65309;49.790;18.972;2023-03-02T06:01:55;4.22;;;2.38;;
76477;SDS011;65309;49.790;18.972;2023-03-02T06:06:59;3.88;;;2.60;;
76477;SDS011;65309;49.790;18.972;2023-03-02T06:12:01;2.55;;;2.13;;
76477;SDS011;65309;49.790;18.972;2023-03-02T06:17:04;2.35;;;2.00;;
76477;SDS011;65309;49.790;18.972;2023-03-02T06:22:06;3.60;;;2.38;;
76477;SDS011;65309;49.790;18.972;2023-03-02T06:27:09;1.23;;;1.13;;
76477;SDS011;65309;49.790;18.972;2023-03-02T06:32:13;3.00;;;2.03;;
76477;SDS011;65309;49.790;18.972;2023-03-02T06:37:16;1.35;;;1.25;;
76477;SDS011;65309;49.790;18.972;2023-03-02T06:42:18;1.42;;;1.08;;
76477;SDS011;65309;49.790;18.972;2023-03-02T06:47:21;1.58;;;1.30;;
76477;SDS011;65309;49.790;18.972;2023-03-02T06:52:24;9.45;;;4.53;;
76477;SDS011;65309;49.790;18.972;2023-03-02T06:57:27;21.48;;;10.95;;
76477;SDS011;65309;49.790;18.972;2023-03-02T07:02:36;19.92;;;10.75;;
76477;SDS011;65309;49.790;18.972;2023-03-02T07:07:38;16.70;;;8.23;;
76477;SDS011;65309;49.790;18.972;2023-03-02T07:12:40;15.45;;;7.78;;
76477;SDS011;65309;49.790;18.972;2023-03-02T07:17:44;21.73;;;12.10;;
76477;SDS011;65309;49.790;18.972;2023-03-02T07:22:47;25.13;;;10.20;;
76477;SDS011;65309;49.790;18.972;2023-03-02T07:27:49;17.05;;;9.13;;
76477;SDS011;65309;49.790;18.972;2023-03-02T07:32:52;17.17;;;10.65;;
76477;SDS011;65309;49.790;18.972;2023-03-02T07:37:54;12.40;;;7.20;;
76477;SDS011;65309;49.790;18.972;2023-03-02T07:42:56;21.10;;;15.45;;
76477;SDS011;65309;49.790;18.972;2023-03-02T07:47:59;20.50;;;9.43;;
76477;SDS011;65309;49.790;18.972;2023-03-02T07:53:01;31.83;;;15.30;;
76477;SDS011;65309;49.790;18.972;2023-03-02T07:58:03;32.42;;;15.98;;
76477;SDS011;65309;49.790;18.972;2023-03-02T08:03:07;23.33;;;13.02;;
76477;SDS011;65309;49.790;18.972;2023-03-02T08:08:09;47.78;;;20.92;;
76477;SDS011;65309;49.790;18.972;2023-03-02T08:13:11;23.50;;;13.15;;
76477;SDS011;65309;49.790;18.972;2023-03-02T08:18:14;42.90;;;23.20;;
76477;SDS011;65309;49.790;18.972;2023-03-02T08:23:16;25.42;;;14.93;;
76477;SDS011;65309;49.790;18.972;2023-03-02T08:28:18;21.95;;;10.65;;
76477;SDS011;65309;49.790;18.972;2023-03-02T08:33:22;38.72;;;18.88;;
76477;SDS011;65309;49.790;18.972;2023-03-02T08:38:25;37.13;;;18.00;;
76477;SDS011;65309;49.790;18.972;2023-03-02T08:43:28;23.70;;;16.08;;
76477;SDS011;65309;49.790;18.972;2023-03-02T08:48:31;25.70;;;13.45;;
76477;SDS011;65309;49.790;18.972;2023-03-02T08:53:35;27.48;;;16.27;;
76477;SDS011;65309;49.790;18.972;2023-03-02T08:58:38;30.92;;;17.17;;
76477;SDS011;65309;49.790;18.972;2023-03-02T09:03:42;12.63;;;8.65;;
76477;SDS011;65309;49.790;18.972;2023-03-02T09:08:44;7.80;;;6.68;;
76477;SDS011;65309;49.790;18.972;2023-03-02T09:13:47;6.18;;;5.15;;
76477;SDS011;65309;49.790;18.972;2023-03-02T09:18:50;11.25;;;6.50;;
76477;SDS011;65309;49.790;18.972;2023-03-02T09:23:53;8.77;;;5.45;;
76477;SDS011;65309;49.790;18.972;2023-03-02T09:28:58;11.52;;;6.70;;
76477;SDS011;65309;49.790;18.972;2023-03-02T09:34:02;7.88;;;4.30;;
76477;SDS011;65309;49.790;18.972;2023-03-02T09:39:05;11.90;;;5.78;;
76477;SDS011;65309;49.790;18.972;2023-03-02T09:44:19;18.38;;;9.32;;
76477;SDS011;65309;49.790;18.972;2023-03-02T09:49:44;19.70;;;12.43;;
76477;SDS011;65309;49.790;18.972;2023-03-02T09:54:59;10.85;;;7.03;;
76477;SDS011;65309;49.790;18.972;2023-03-02T10:00:03;19.10;;;11.73;;
76477;SDS011;65309;49.790;18.972;2023-03-02T10:05:23;18.30;;;9.55;;
76477;SDS011;65309;49.790;18.972;2023-03-02T10:10:32;19.33;;;9.00;;
76477;SDS011;65309;49.790;18.972;2023-03-02T10:15:43;18.50;;;9.10;;
76477;SDS011;65309;49.790;18.972;2023-03-02T10:20:53;6.82;;;4.85;;
76477;SDS011;65309;49.790;18.972;2023-03-02T10:26:03;12.23;;;8.77;;
76477;SDS011;65309;49.790;18.972;2023-03-02T10:31:22;18.20;;;8.95;;
76477;SDS011;65309;49.790;18.972;2023-03-02T10:36:36;14.20;;;9.68;;
76477;SDS011;65309;49.790;18.972;2023-03-02T10:41:42;10.13;;;6.05;;
76477;SDS011;65309;49.790;18.972;2023-03-02T10:46:48;22.15;;;12.07;;
76477;SDS011;65309;49.790;18.972;2023-03-02T10:52:01;17.08;;;10.02;;
76477;SDS011;65309;49.790;18.972;2023-03-02T10:57:17;14.10;;;7.32;;
76477;SDS011;65309;49.790;18.972;2023-03-02T11:02:33;11.90;;;6.53;;
76477;SDS011;65309;49.790;18.972;2023-03-02T11:07:50;13.55;;;6.32;;
76477;SDS011;65309;49.790;18.972;2023-03-02T11:13:19;12.90;;;6.95;;
76477;SDS011;65309;49.790;18.972;2023-03-02T11:18:28;21.63;;;9.88;;
76477;SDS011;65309;49.790;18.972;2023-03-02T11:23:46;18.55;;;7.85;;
76477;SDS011;65309;49.790;18.972;2023-03-02T11:28:59;9.25;;;6.40;;
76477;SDS011;65309;49.790;18.972;2023-03-02T11:39:38;18.20;;;10.32;;
76477;SDS011;65309;49.790;18.972;2023-03-02T11:44:59;17.17;;;9.95;;
76477;SDS011;65309;49.790;18.972;2023-03-02T11:50:04;18.08;;;10.10;;
76477;SDS011;65309;49.790;18.972;2023-03-02T11:55:16;12.27;;;5.60;;
76477;SDS011;65309;49.790;18.972;2023-03-02T12:00:26;14.93;;;8.63;;
76477;SDS011;65309;49.790;18.972;2023-03-02T12:05:32;16.33;;;10.38;;
76477;SDS011;65309;49.790;18.972;2023-03-02T12:10:42;10.98;;;6.82;;
76477;SDS011;65309;49.790;18.972;2023-03-02T12:15:58;11.68;;;6.97;;
76477;SDS011;65309;49.790;18.972;2023-03-02T12:21:02;9.30;;;7.20;;
76477;SDS011;65309;49.790;18.972;2023-03-02T12:26:24;21.05;;;12.85;;
76477;SDS011;65309;49.790;18.972;2023-03-02T12:31:41;17.13;;;9.30;;
76477;SDS011;65309;49.790;18.972;2023-03-02T12:36:45;13.88;;;6.93;;
76477;SDS011;65309;49.790;18.972;2023-03-02T12:42:11;8.90;;;5.95;;
76477;SDS011;65309;49.790;18.972;2023-03-02T12:47:29;17.60;;;9.75;;
76477;SDS011;65309;49.790;18.972;2023-03-02T12:52:38;9.90;;;5.10;;
76477;SDS011;65309;49.790;18.972;2023-03-02T12:57:47;11.43;;;4.82;;
76477;SDS011;65309;49.790;18.972;2023-03-02T13:02:52;14.73;;;8.95;;
76477;SDS011;65309;49.790;18.972;2023-03-02T13:08:00;13.90;;;7.60;;
76477;SDS011;65309;49.790;18.972;2023-03-02T13:13:15;11.93;;;6.97;;
76477;SDS011;65309;49.790;18.972;2023-03-02T13:18:19;13.80;;;7.32;;
76477;SDS011;65309;49.790;18.972;2023-03-02T13:23:24;18.02;;;6.65;;
76477;SDS011;65309;49.790;18.972;2023-03-02T13:28:32;16.63;;;9.55;;
76477;SDS011;65309;49.790;18.972;2023-03-02T13:33:41;18.73;;;8.70;;
76477;SDS011;65309;49.790;18.972;2023-03-02T13:38:46;8.43;;;5.53;;
76477;SDS011;65309;49.790;18.972;2023-03-02T13:43:56;17.15;;;8.38;;
76477;SDS011;65309;49.790;18.972;2023-03-02T13:49:04;15.77;;;9.35;;
76477;SDS011;65309;49.790;18.972;2023-03-02T13:54:19;17.45;;;7.65;;
76477;SDS011;65309;49.790;18.972;2023-03-02T13:59:32;13.70;;;6.80;;
76477;SDS011;65309;49.790;18.972;2023-03-02T14:04:38;18.92;;;10.57;;
76477;SDS011;65309;49.790;18.972;2023-03-02T14:09:51;12.10;;;6.95;;
76477;SDS011;65309;49.790;18.972;2023-03-02T14:15:01;17.45;;;10.13;;
76477;SDS011;65309;49.790;18.972;2023-03-02T14:20:10;14.50;;;6.95;;
76477;SDS011;65309;49.790;18.972;2023-03-02T14:25:16;8.65;;;6.07;;
76477;SDS011;65309;49.790;18.972;2023-03-02T14:30:21;18.38;;;9.32;;
76477;SDS011;65309;49.790;18.972;2023-03-02T14:35:27;18.45;;;9.95;;
76477;SDS011;65309;49.790;18.972;2023-03-02T14:40:30;25.77;;;9.13;;
76477;SDS011;65309;49.790;18.972;2023-03-02T14:45:34;14.00;;;7.80;;
76477;SDS011;65309;49.790;18.972;2023-03-02T14:55:40;10.20;;;6.90;;
76477;SDS011;65309;49.790;18.972;2023-03-02T15:00:45;25.08;;;12.43;;
76477;SDS011;65309;49.790;18.972;2023-03-02T15:05:53;14.82;;;8.07;;
76477;SDS011;65309;49.790;18.972;2023-03-02T15:11:03;16.02;;;8.68;;
76477;SDS011;65309;49.790;18.972;2023-03-02T15:16:08;16.58;;;11.00;;
76477;SDS011;65309;49.790;18.972;2023-03-02T15:21:16;16.77;;;9.20;;
76477;SDS011;65309;49.790;18.972;2023-03-02T15:26:21;17.85;;;9.05;;
76477;SDS011;65309;49.790;18.972;2023-03-02T15:31:25;24.30;;;11.65;;
76477;SDS011;65309;49.790;18.972;2023-03-02T15:36:29;27.27;;;13.45;;
76477;SDS011;65309;49.790;18.972;2023-03-02T15:41:33;23.73;;;10.02;;
76477;SDS011;65309;49.790;18.972;2023-03-02T15:46:44;27.55;;;13.10;;
76477;SDS011;65309;49.790;18.972;2023-03-02T15:51:47;48.58;;;19.75;;
76477;SDS011;65309;49.790;18.972;2023-03-02T15:56:50;31.30;;;14.95;;
76477;SDS011;65309;49.790;18.972;2023-03-02T16:08:23;45.80;;;19.48;;
76477;SDS011;65309;49.790;18.972;2023-03-02T16:13:31;49.20;;;18.00;;
76477;SDS011;65309;49.790;18.972;2023-03-02T16:18:34;39.97;;;14.65;;
76477;SDS011;65309;49.790;18.972;2023-03-02T16:23:38;45.75;;;17.75;;
76477;SDS011;65309;49.790;18.972;2023-03-02T16:28:40;25.15;;;11.80;;
76477;SDS011;65309;49.790;18.972;2023-03-02T16:33:43;20.23;;;10.48;;
76477;SDS011;65309;49.790;18.972;2023-03-02T16:38:48;14.98;;;8.80;;
76477;SDS011;65309;49.790;18.972;2023-03-02T16:43:50;17.10;;;9.82;;
76477;SDS011;65309;49.790;18.972;2023-03-02T16:48:54;11.70;;;9.23;;
76477;SDS011;65309;49.790;18.972;2023-03-02T16:53:58;15.50;;;10.48;;
76477;SDS011;65309;49.790;18.972;2023-03-02T16:59:01;12.30;;;8.13;;
76477;SDS011;65309;49.790;18.972;2023-03-02T17:04:04;13.60;;;6.75;;
76477;SDS011;65309;49.790;18.972;2023-03-02T17:09:08;15.88;;;9.27;;
76477;SDS011;65309;49.790;18.972;2023-03-02T17:14:14;18.70;;;10.43;;
76477;SDS011;65309;49.790;18.972;2023-03-02T17:19:16;14.15;;;7.50;;
76477;SDS011;65309;49.790;18.972;2023-03-02T17:24:20;10.80;;;6.38;;
76477;SDS011;65309;49.790;18.972;2023-03-02T17:29:22;18.40;;;8.60;;
76477;SDS011;65309;49.790;18.972;2023-03-02T17:34:24;14.13;;;8.63;;
76477;SDS011;65309;49.790;18.972;2023-03-02T17:39:32;15.73;;;9.82;;
76477;SDS011;65309;49.790;18.972;2023-03-02T17:44:36;18.00;;;9.13;;
76477;SDS011;65309;49.790;18.972;2023-03-02T17:54:42;13.95;;;7.90;;
76477;SDS011;65309;49.790;18.972;2023-03-02T17:59:45;13.85;;;7.03;;
76477;SDS011;65309;49.790;18.972;2023-03-02T18:04:47;12.07;;;6.70;;
76477;SDS011;65309;49.790;18.972;2023-03-02T18:09:50;12.63;;;8.60;;
76477;SDS011;65309;49.790;18.972;2023-03-02T18:14:52;11.20;;;7.15;;
76477;SDS011;65309;49.790;18.972;2023-03-02T18:19:54;28.50;;;9.02;;
76477;SDS011;65309;49.790;18.972;2023-03-02T18:24:57;15.23;;;7.57;;
76477;SDS011;65309;49.790;18.972;2023-03-02T18:29:59;10.35;;;6.47;;
76477;SDS011;65309;49.790;18.972;2023-03-02T18:35:01;7.93;;;4.75;;
76477;SDS011;65309;49.790;18.972;2023-03-02T18:40:06;6.93;;;5.25;;
76477;SDS011;65309;49.790;18.972;2023-03-02T18:45:10;13.48;;;6.50;;
76477;SDS011;65309;49.790;18.972;2023-03-02T18:50:23;14.30;;;7.35;;
76477;SDS011;65309;49.790;18.972;2023-03-02T18:55:27;13.90;;;7.78;;
76477;SDS011;65309;49.790;18.972;2023-03-02T19:00:29;14.75;;;7.85;;
76477;SDS011;65309;49.790;18.972;2023-03-02T19:05:31;11.82;;;6.15;;
76477;SDS011;65309;49.790;18.972;2023-03-02T19:10:35;10.77;;;5.13;;
76477;SDS011;65309;49.790;18.972;2023-03-02T19:15:38;10.60;;;4.82;;
76477;SDS011;65309;49.790;18.972;2023-03-02T19:20:40;7.07;;;4.20;;
76477;SDS011;65309;49.790;18.972;2023-03-02T19:25:44;8.75;;;4.68;;
76477;SDS011;65309;49.790;18.972;2023-03-02T19:30:46;5.78;;;3.75;;
76477;SDS011;65309;49.790;18.972;2023-03-02T19:35:48;6.22;;;4.35;;
76477;SDS011;65309;49.790;18.972;2023-03-02T19:40:52;7.10;;;2.97;;
76477;SDS011;65309;49.790;18.972;2023-03-02T19:45:54;7.18;;;4.47;;
76477;SDS011;65309;49.790;18.972;2023-03-02T19:50:56;8.32;;;4.18;;
76477;SDS011;65309;49.790;18.972;2023-03-02T19:56:00;6.07;;;4.22;;
76477;SDS011;65309;49.790;18.972;2023-03-02T20:01:03;4.70;;;4.00;;
76477;SDS011;65309;49.790;18.972;2023-03-02T20:06:05;4.60;;;3.83;;
76477;SDS011;65309;49.790;18.972;2023-03-02T20:11:09;9.15;;;4.15;;
76477;SDS011;65309;49.790;18.972;2023-03-02T20:16:13;5.60;;;3.55;;
76477;SDS011;65309;49.790;18.972;2023-03-02T20:21:15;9.77;;;4.55;;
76477;SDS011;65309;49.790;18.972;2023-03-02T20:26:19;6.70;;;4.25;;
76477;SDS011;65309;49.790;18.972;2023-03-02T20:31:22;4.97;;;3.58;;
76477;SDS011;65309;49.790;18.972;2023-03-02T20:36:26;6.60;;;3.90;;
76477;SDS011;65309;49.790;18.972;2023-03-02T20:41:31;5.85;;;3.80;;
76477;SDS011;65309;49.790;18.972;2023-03-02T20:46:34;6.45;;;3.60;;
76477;SDS011;65309;49.790;18.972;2023-03-02T20:51:39;6.85;;;5.10;;
76477;SDS011;65309;49.790;18.972;2023-03-02T20:56:47;8.43;;;4.72;;
76477;SDS011;65309;49.790;18.972;2023-03-02T21:01:49;4.95;;;3.60;;
76477;SDS011;65309;49.790;18.972;2023-03-02T21:06:51;6.55;;;4.55;;
76477;SDS011;65309;49.790;18.972;2023-03-02T21:11:55;4.65;;;2.83;;
76477;SDS011;65309;49.790;18.972;2023-03-02T21:16:59;8.00;;;4.78;;
76477;SDS011;65309;49.790;18.972;2023-03-02T21:22:02;8.07;;;4.43;;
76477;SDS011;65309;49.790;18.972;2023-03-02T21:27:06;6.05;;;4.00;;
76477;SDS011;65309;49.790;18.972;2023-03-02T21:32:08;7.30;;;4.03;;
76477;SDS011;65309;49.790;18.972;2023-03-02T21:37:10;8.55;;;4.97;;
76477;SDS011;65309;49.790;18.972;2023-03-02T21:42:14;11.65;;;4.15;;
76477;SDS011;65309;49.790;18.972;2023-03-02T21:47:16;5.03;;;3.63;;
76477;SDS011;65309;49.790;18.972;2023-03-02T21:52:17;8.88;;;4.28;;
76477;SDS011;65309;49.790;18.972;2023-03-02T21:57:21;8.45;;;3.60;;
76477;SDS011;65309;49.790;18.972;2023-03-02T22:02:23;10.70;;;4.65;;
76477;SDS011;65309;49.790;18.972;2023-03-02T22:07:25;15.82;;;6.22;;
76477;SDS011;65309;49.790;18.972;2023-03-02T22:12:29;10.60;;;7.72;;
76477;SDS011;65309;49.790;18.972;2023-03-02T22:17:32;10.88;;;6.68;;
76477;SDS011;65309;49.790;18.972;2023-03-02T22:22:34;12.45;;;7.32;;
76477;SDS011;65309;49.790;18.972;2023-03-02T22:27:37;9.27;;;5.80;;
76477;SDS011;65309;49.790;18.972;2023-03-02T22:32:39;12.38;;;6.63;;
76477;SDS011;65309;49.790;18.972;2023-03-02T22:37:41;7.68;;;5.72;;
76477;SDS011;65309;49.790;18.972;2023-03-02T22:42:45;15.95;;;5.72;;
76477;SDS011;65309;49.790;18.972;2023-03-02T22:47:47;6.53;;;3.75;;
76477;SDS011;65309;49.790;18.972;2023-03-02T22:52:52;6.65;;;3.45;;
76477;SDS011;65309;49.790;18.972;2023-03-02T22:57:56;5.78;;;3.67;;
76477;SDS011;65309;49.790;18.972;2023-03-02T23:02:58;8.55;;;3.17;;
76477;SDS011;65309;49.790;18.972;2023-03-02T23:08:13;8.75;;;4.85;;
76477;SDS011;65309;49.790;18.972;2023-03-02T23:13:20;4.70;;;2.67;;
76477;SDS011;65309;49.790;18.972;2023-03-02T23:18:28;6.93;;;5.45;;
76477;SDS011;65309;49.790;18.972;2023-03-02T23:23:33;9.77;;;4.35;;
76477;SDS011;65309;49.790;18.972;2023-03-02T23:28:36;12.25;;;5.18;;
76477;SDS011;65309;49.790;18.972;2023-03-02T23:33:38;8.95;;;5.57;;
76477;SDS011;65309;49.790;18.972;2023-03-02T23:38:41;12.23;;;5.95;;
76477;SDS011;65309;49.790;18.972;2023-03-02T23:43:44;7.80;;;4.60;;
76477;SDS011;65309;49.790;18.972;2023-03-02T23:48:46;14.55;;;6.93;;
76477;SDS011;65309;49.790;18.972;2023-03-02T23:53:49;13.65;;;6.20;;
76477;SDS011;65309;49.790;18.972;2023-03-02T23:58:52;7.07;;;4.28;;
